Time;durP1;ratioP1;P1;durP2;ratioP2;P2;SDS_P1;SDS_P2;PMS_P1;PMS_P2;Temp;Humidity;BMP_temperature;BMP_pressure;BME280_temperature;BME280_humidity;BME280_pressure;Samples;Min_cycle;Max_cycle;Signal;HPM_P1;HPM_P2
2024/03/11 00:02:02;;;;;;;;;;;9.40;86.80;;;;;;5015647;28;19940;-65
2024/03/11 00:04:35;;;;;;;;;;;9.30;87.10;;;;;;5017548;28;19929;-64
2024/03/11 00:07:08;;;;;;;;;;;9.30;87.00;;;;;;5017907;28;20035;-64
2024/03/11 00:09:48;;;;;;;;;;;9.30;87.10;;;;;;5020325;28;19925;-66
2024/03/11 00:12:23;;;;;;;;;;;9.30;87.00;;;;;;5018431;28;19935;-65
2024/03/11 00:14:57;;;;;;;;;;;9.40;86.90;;;;;;5020207;28;19932;-66
2024/03/11 00:17:32;;;;;;;;;;;9.50;87.00;;;;;;5018274;28;19925;-64
2024/03/11 00:20:06;;;;;;;;;;;9.40;86.70;;;;;;5019608;28;19972;-64
2024/03/11 00:22:39;;;;;;;;;;;9.50;86.80;;;;;;5017585;28;19957;-66
2024/03/11 00:25:15;;;;;;;;;;;9.60;86.80;;;;;;5023725;28;19940;-64
2024/03/11 00:27:48;;;;;;;;;;;9.60;86.70;;;;;;5018112;28;20039;-65
2024/03/11 00:30:23;;;;;;;;;;;9.60;86.70;;;;;;5019502;28;20394;-65
2024/03/11 00:32:59;;;;;;;;;;;9.70;86.70;;;;;;5018595;28;19932;-64
2024/03/11 00:35:33;;;;;;;;;;;9.60;86.30;;;;;;5016268;28;19925;-66
2024/03/11 00:38:07;;;;;;;;;;;9.70;86.40;;;;;;5018933;28;20024;-65
2024/03/11 00:40:34;;;;;;;;;;;9.70;86.30;;;;;;5018464;28;19930;-66
2024/03/11 00:43:08;;;;;;;;;;;9.70;85.90;;;;;;5019131;28;19931;-66
2024/03/11 00:45:41;;;;;;;;;;;9.70;86.10;;;;;;5018381;28;19925;-66
2024/03/11 00:48:16;;;;;;;;;;;9.70;85.40;;;;;;5017842;28;20024;-64
2024/03/11 00:50:49;;;;;;;;;;;9.80;85.40;;;;;;5015807;28;20368;-64
2024/03/11 00:53:22;;;;;;;;;;;9.90;85.30;;;;;;5014428;28;19941;-64
2024/03/11 00:55:55;;;;;;;;;;;9.90;85.50;;;;;;5019224;28;19925;-67
2024/03/11 00:58:28;;;;;;;;;;;9.90;85.40;;;;;;5018829;28;19933;-65
2024/03/11 01:01:02;;;;;;;;;;;9.90;85.30;;;;;;5019254;28;19925;-65
2024/03/11 01:03:37;;;;;;;;;;;9.90;85.30;;;;;;5017532;28;19930;-67
2024/03/11 01:06:10;;;;;;;;;;;9.90;85.00;;;;;;5018228;28;19932;-66
2024/03/11 01:08:44;;;;;;;;;;;9.90;85.20;;;;;;5016450;28;19975;-66
2024/03/11 01:11:17;;;;;;;;;;;9.90;84.80;;;;;;5011313;28;19925;-65
2024/03/11 01:13:50;;;;;;;;;;;9.90;84.80;;;;;;5016296;28;19932;-68
2024/03/11 01:16:23;;;;;;;;;;;9.90;84.80;;;;;;5017940;28;19925;-66
2024/03/11 01:18:58;;;;;;;;;;;10.00;84.90;;;;;;5018220;28;19925;-65
2024/03/11 01:21:35;;;;;;;;;;;10.00;85.40;;;;;;5015822;28;19929;-60
2024/03/11 01:24:10;;;;;;;;;;;9.90;85.60;;;;;;5018235;28;19926;-57
2024/03/11 01:26:47;;;;;;;;;;;9.80;85.90;;;;;;5017605;28;19987;-59
2024/03/11 01:29:21;;;;;;;;;;;9.80;85.80;;;;;;5016612;28;19926;-60
2024/03/11 01:31:55;;;;;;;;;;;9.70;86.00;;;;;;5018173;28;19930;-60
2024/03/11 01:34:30;;;;;;;;;;;9.70;86.10;;;;;;5018555;28;19990;-59
2024/03/11 01:37:04;;;;;;;;;;;9.70;86.10;;;;;;5013018;28;19932;-59
2024/03/11 01:39:43;;;;;;;;;;;9.60;86.20;;;;;;5015731;28;19929;-58
2024/03/11 01:42:17;;;;;;;;;;;9.60;86.20;;;;;;5017072;28;19932;-58
2024/03/11 01:44:51;;;;;;;;;;;9.50;86.30;;;;;;5017363;28;19972;-58
2024/03/11 01:47:37;;;;;;;;;;;9.50;86.30;;;;;;5016492;28;20044;-58
2024/03/11 01:50:13;;;;;;;;;;;9.50;86.30;;;;;;5016996;28;19925;-58
2024/03/11 01:52:48;;;;;;;;;;;9.40;86.30;;;;;;5018610;28;19929;-59
2024/03/11 01:55:22;;;;;;;;;;;9.40;86.20;;;;;;5017279;28;19925;-59
2024/03/11 01:58:03;;;;;;;;;;;9.40;86.20;;;;;;5014636;28;19930;-59
2024/03/11 02:00:37;;;;;;;;;;;9.40;86.20;;;;;;5016449;28;20007;-59
2024/03/11 02:03:10;;;;;;;;;;;9.40;86.10;;;;;;5016205;28;19937;-60
2024/03/11 02:05:45;;;;;;;;;;;9.40;86.10;;;;;;5014875;28;19960;-58
2024/03/11 02:08:21;;;;;;;;;;;9.30;86.10;;;;;;5017370;28;19925;-59
2024/03/11 02:10:54;;;;;;;;;;;9.20;86.20;;;;;;5016587;28;19925;-59
2024/03/11 02:13:30;;;;;;;;;;;9.30;86.10;;;;;;5010526;28;20346;-58
2024/03/11 02:16:03;;;;;;;;;;;9.20;86.00;;;;;;5017008;28;19932;-59
2024/03/11 02:18:36;;;;;;;;;;;9.20;86.00;;;;;;5013800;28;19972;-60
2024/03/11 02:21:11;;;;;;;;;;;9.20;85.90;;;;;;5016997;28;19952;-60
2024/03/11 02:23:46;;;;;;;;;;;9.20;85.80;;;;;;5015967;28;19929;-58
2024/03/11 02:26:20;;;;;;;;;;;9.20;85.80;;;;;;5016753;28;20364;-59
2024/03/11 02:28:53;;;;;;;;;;;9.20;85.80;;;;;;5016504;28;19932;-59
2024/03/11 02:31:28;;;;;;;;;;;9.20;85.80;;;;;;5015303;28;19952;-63
2024/03/11 02:34:01;;;;;;;;;;;9.20;85.70;;;;;;5015487;28;19933;-64
2024/03/11 02:36:35;;;;;;;;;;;9.20;85.70;;;;;;5015518;28;20054;-64
2024/03/11 02:39:05;;;;;;;;;;;9.10;85.80;;;;;;5014898;28;19968;-64
2024/03/11 02:41:38;;;;;;;;;;;9.10;85.70;;;;;;5015932;28;19925;-63
2024/03/11 02:44:12;;;;;;;;;;;9.10;85.70;;;;;;5017178;28;19960;-63
2024/03/11 02:46:45;;;;;;;;;;;9.10;85.60;;;;;;5016575;28;19929;-64
2024/03/11 02:49:18;;;;;;;;;;;9.10;85.70;;;;;;5016599;28;19932;-63
2024/03/11 02:51:52;;;;;;;;;;;9.10;85.70;;;;;;5016605;28;20419;-64
2024/03/11 02:54:27;;;;;;;;;;;9.00;85.70;;;;;;5015273;28;19936;-64
2024/03/11 02:57:00;;;;;;;;;;;9.00;85.60;;;;;;5010665;28;19932;-64
2024/03/11 02:59:33;;;;;;;;;;;9.10;85.60;;;;;;5019380;28;19925;-64
2024/03/11 03:02:07;;;;;;;;;;;9.10;85.40;;;;;;5020140;28;19929;-64
2024/03/11 03:04:41;;;;;;;;;;;9.00;85.40;;;;;;5020393;28;20568;-64
2024/03/11 03:07:16;;;;;;;;;;;9.00;85.50;;;;;;5020630;28;19925;-65
2024/03/11 03:09:57;;;;;;;;;;;9.00;85.50;;;;;;5020313;28;19963;-64
2024/03/11 03:12:30;;;;;;;;;;;9.00;85.50;;;;;;5018010;28;19929;-63
2024/03/11 03:14:58;;;;;;;;;;;9.00;85.50;;;;;;5020500;28;19929;-63
2024/03/11 03:17:33;;;;;;;;;;;9.00;85.50;;;;;;5018132;28;20403;-63
2024/03/11 03:20:09;;;;;;;;;;;9.10;85.50;;;;;;5020680;28;19968;-63
2024/03/11 03:22:42;;;;;;;;;;;9.00;85.50;;;;;;5018039;28;19925;-63
2024/03/11 03:25:17;;;;;;;;;;;9.00;85.40;;;;;;5019549;28;19925;-65
2024/03/11 03:27:50;;;;;;;;;;;9.00;85.40;;;;;;5020185;28;20411;-62
2024/03/11 03:30:23;;;;;;;;;;;9.00;85.50;;;;;;5020637;28;20015;-63
2024/03/11 03:32:57;;;;;;;;;;;8.90;85.70;;;;;;5019446;28;19959;-64
2024/03/11 03:35:30;;;;;;;;;;;8.90;85.80;;;;;;5019225;28;19926;-64
2024/03/11 03:38:04;;;;;;;;;;;8.90;85.80;;;;;;5019318;28;19972;-63
2024/03/11 03:40:39;;;;;;;;;;;8.90;85.90;;;;;;5020627;28;19925;-62
2024/03/11 03:43:12;;;;;;;;;;;8.80;86.00;;;;;;5017644;28;20015;-63
2024/03/11 03:45:48;;;;;;;;;;;8.80;86.10;;;;;;5020152;28;19925;-62
2024/03/11 03:48:21;;;;;;;;;;;8.80;86.20;;;;;;5021759;28;19947;-61
2024/03/11 03:50:55;;;;;;;;;;;8.80;86.20;;;;;;5019978;28;19933;-60
2024/03/11 03:53:28;;;;;;;;;;;8.80;86.40;;;;;;5021417;28;19935;-60
2024/03/11 03:56:03;;;;;;;;;;;8.80;86.30;;;;;;5019715;28;19932;-62
2024/03/11 03:58:30;;;;;;;;;;;8.80;86.50;;;;;;5019967;28;19925;-63
2024/03/11 04:01:06;;;;;;;;;;;8.70;86.50;;;;;;5020180;28;19925;-60
2024/03/11 04:03:42;;;;;;;;;;;8.70;86.50;;;;;;5019463;28;19932;-63
2024/03/11 04:06:15;;;;;;;;;;;8.80;86.60;;;;;;5021043;28;19925;-63
2024/03/11 04:08:50;;;;;;;;;;;8.70;86.60;;;;;;5020203;28;19925;-61
2024/03/11 04:11:26;;;;;;;;;;;8.70;86.60;;;;;;5019293;28;19930;-61
2024/03/11 04:14:00;;;;;;;;;;;8.70;86.60;;;;;;5018348;28;20035;-63
2024/03/11 04:16:37;;;;;;;;;;;8.60;86.60;;;;;;5015779;28;19933;-61
2024/03/11 04:19:11;;;;;;;;;;;8.60;86.50;;;;;;5002910;28;19970;-61
2024/03/11 04:21:44;;;;;;;;;;;8.60;86.30;;;;;;5018721;28;20579;-61
2024/03/11 04:24:20;;;;;;;;;;;8.60;86.20;;;;;;5019059;28;19929;-62
2024/03/11 04:26:55;;;;;;;;;;;8.60;86.20;;;;;;5019141;28;19936;-60
2024/03/11 04:29:28;;;;;;;;;;;8.60;86.30;;;;;;5014796;28;19925;-63
2024/03/11 04:32:02;;;;;;;;;;;8.50;86.30;;;;;;5014185;28;20030;-62
2024/03/11 04:34:38;;;;;;;;;;;8.50;86.30;;;;;;5014690;28;21141;-62
2024/03/11 04:37:11;;;;;;;;;;;8.50;86.20;;;;;;5015805;28;19932;-63
2024/03/11 04:39:44;;;;;;;;;;;8.50;86.10;;;;;;5019035;28;19937;-62
2024/03/11 04:42:19;;;;;;;;;;;8.40;86.20;;;;;;5012124;28;19936;-63
2024/03/11 04:44:52;;;;;;;;;;;8.50;86.30;;;;;;5018626;28;19944;-62
2024/03/11 04:47:25;;;;;;;;;;;8.40;86.20;;;;;;5018593;28;19926;-61
2024/03/11 04:49:58;;;;;;;;;;;8.40;86.10;;;;;;5020025;28;19926;-62
2024/03/11 04:52:45;;;;;;;;;;;8.40;86.00;;;;;;5014861;28;20375;-62
2024/03/11 04:58:53;;;;;;;;;;;8.40;86.00;;;;;;5017476;28;20017;-59
2024/03/11 05:01:27;;;;;;;;;;;8.40;86.10;;;;;;5018832;28;20372;-60
2024/03/11 05:04:00;;;;;;;;;;;8.30;86.00;;;;;;5019468;28;19929;-59
2024/03/11 05:06:34;;;;;;;;;;;8.30;86.10;;;;;;5018318;28;19929;-60
2024/03/11 05:09:10;;;;;;;;;;;8.30;86.10;;;;;;5017697;28;20024;-61
2024/03/11 05:11:43;;;;;;;;;;;8.30;86.10;;;;;;5018835;28;19928;-59
2024/03/11 05:14:18;;;;;;;;;;;8.30;86.20;;;;;;5018561;28;19980;-60
2024/03/11 05:16:55;;;;;;;;;;;8.30;86.20;;;;;;5015038;28;19984;-60
2024/03/11 05:19:27;;;;;;;;;;;8.20;86.30;;;;;;5016703;28;20410;-61
2024/03/11 05:22:01;;;;;;;;;;;8.20;86.20;;;;;;5017356;28;20010;-59
2024/03/11 05:24:34;;;;;;;;;;;8.20;86.30;;;;;;5014852;28;20020;-61
2024/03/11 05:27:08;;;;;;;;;;;8.20;86.20;;;;;;5018672;28;19933;-60
2024/03/11 05:29:43;;;;;;;;;;;8.20;86.30;;;;;;5018495;28;19932;-60
2024/03/11 05:32:17;;;;;;;;;;;8.20;86.40;;;;;;5019259;28;19932;-60
2024/03/11 05:34:50;;;;;;;;;;;8.20;86.30;;;;;;5018482;28;19929;-60
2024/03/11 05:37:26;;;;;;;;;;;8.20;86.30;;;;;;5018993;28;19925;-60
2024/03/11 05:40:01;;;;;;;;;;;8.20;86.30;;;;;;5019209;28;19937;-59
2024/03/11 05:42:34;;;;;;;;;;;8.20;86.30;;;;;;5014803;28;19964;-60
2024/03/11 05:45:10;;;;;;;;;;;8.20;86.40;;;;;;5019527;28;20430;-59
2024/03/11 05:47:45;;;;;;;;;;;8.20;86.50;;;;;;5018130;28;19926;-60
2024/03/11 05:50:20;;;;;;;;;;;8.20;86.60;;;;;;5019401;28;19964;-60
2024/03/11 05:52:53;;;;;;;;;;;8.30;86.60;;;;;;5017416;28;20296;-59
2024/03/11 05:55:32;;;;;;;;;;;8.20;86.70;;;;;;5018300;28;19937;-59
2024/03/11 05:58:10;;;;;;;;;;;8.20;86.80;;;;;;5017787;28;19961;-60
2024/03/11 06:00:46;;;;;;;;;;;8.30;86.90;;;;;;5018753;28;19971;-71
2024/03/11 06:04:07;;;;;;;;;;;8.30;87.00;;;;;;5032855;28;19925;-71
2024/03/11 06:06:56;;;;;;;;;;;8.30;87.10;;;;;;5007123;28;19925;-73
2024/03/11 06:09:29;;;;;;;;;;;8.30;87.00;;;;;;5014845;28;19926;-73
2024/03/11 06:12:03;;;;;;;;;;;8.30;87.00;;;;;;5017945;28;19925;-72
2024/03/11 06:14:36;;;;;;;;;;;8.30;87.20;;;;;;5017913;28;19973;-72
2024/03/11 06:17:11;;;;;;;;;;;8.30;87.20;;;;;;5014373;28;19956;-74
2024/03/11 06:19:44;;;;;;;;;;;8.40;87.40;;;;;;5018078;28;19933;-72
2024/03/11 06:22:17;;;;;;;;;;;8.40;87.40;;;;;;5016309;28;19937;-71
2024/03/11 06:24:50;;;;;;;;;;;8.50;87.40;;;;;;5017740;28;19936;-73
2024/03/11 06:27:23;;;;;;;;;;;8.50;87.30;;;;;;5017945;28;19926;-72
2024/03/11 06:29:57;;;;;;;;;;;8.60;87.40;;;;;;5016664;28;19929;-72
2024/03/11 06:32:32;;;;;;;;;;;8.60;87.20;;;;;;5013154;28;20398;-74
2024/03/11 06:35:06;;;;;;;;;;;8.60;87.20;;;;;;5022495;28;19925;-73
2024/03/11 06:37:33;;;;;;;;;;;8.60;87.30;;;;;;5020841;28;20296;-71
2024/03/11 06:40:07;;;;;;;;;;;8.70;87.30;;;;;;5020917;28;19929;-72
2024/03/11 06:42:41;;;;;;;;;;;8.70;87.20;;;;;;5018085;28;19990;-72
2024/03/11 06:45:08;;;;;;;;;;;8.70;87.40;;;;;;5018074;28;19925;-72
2024/03/11 06:47:43;;;;;;;;;;;8.70;87.40;;;;;;5019088;28;20048;-71
2024/03/11 06:50:16;;;;;;;;;;;8.70;87.60;;;;;;5020166;28;19933;-72
2024/03/11 06:52:45;;;;;;;;;;;8.70;87.50;;;;;;5013871;28;20296;-73
2024/03/11 06:55:18;;;;;;;;;;;8.80;87.30;;;;;;5017420;28;20425;-72
2024/03/11 06:57:51;;;;;;;;;;;8.80;87.10;;;;;;5019022;28;19931;-70
2024/03/11 07:00:25;;;;;;;;;;;8.80;87.10;;;;;;5019281;28;19964;-70
2024/03/11 07:02:59;;;;;;;;;;;8.80;87.20;;;;;;5019720;28;20192;-73
2024/03/11 07:05:32;;;;;;;;;;;8.80;87.40;;;;;;5020865;28;19950;-72
2024/03/11 07:08:09;;;;;;;;;;;8.70;87.40;;;;;;5019472;28;19937;-72
2024/03/11 07:10:41;;;;;;;;;;;8.70;87.20;;;;;;5020607;28;19926;-63
2024/03/11 07:13:14;;;;;;;;;;;8.70;87.50;;;;;;5018450;28;19932;-63
2024/03/11 07:15:47;;;;;;;;;;;8.70;87.40;;;;;;5020531;28;19939;-63
2024/03/11 07:18:22;;;;;;;;;;;8.70;87.50;;;;;;5020645;28;19926;-63
2024/03/11 07:20:59;;;;;;;;;;;8.70;87.40;;;;;;5018395;28;20040;-63
2024/03/11 07:23:33;;;;;;;;;;;8.70;87.40;;;;;;5019258;28;19932;-64
2024/03/11 07:26:07;;;;;;;;;;;8.70;87.30;;;;;;5016872;28;20350;-64
2024/03/11 07:28:40;;;;;;;;;;;8.70;87.30;;;;;;5032631;28;20787;-63
2024/03/11 07:31:20;;;;;;;;;;;8.70;87.20;;;;;;5014876;28;20697;-63
2024/03/11 07:33:55;;;;;;;;;;;8.70;87.10;;;;;;5018633;28;19933;-63
2024/03/11 07:36:29;;;;;;;;;;;8.70;87.00;;;;;;5011450;28;20634;-63
2024/03/11 07:39:03;;;;;;;;;;;8.70;86.90;;;;;;5016230;28;19926;-63
2024/03/11 07:41:36;;;;;;;;;;;8.70;86.80;;;;;;5018527;28;19940;-62
2024/03/11 07:44:11;;;;;;;;;;;8.70;86.90;;;;;;5016022;28;19929;-64
2024/03/11 07:46:45;;;;;;;;;;;8.70;87.00;;;;;;5017870;28;19932;-63
2024/03/11 07:49:20;;;;;;;;;;;8.80;86.80;;;;;;5013006;28;19926;-63
2024/03/11 07:51:55;;;;;;;;;;;8.80;86.90;;;;;;5021004;28;19930;-64
2024/03/11 07:54:29;;;;;;;;;;;8.80;87.30;;;;;;5018289;28;19944;-62
2024/03/11 07:57:02;;;;;;;;;;;8.80;87.20;;;;;;5016787;28;19967;-64
2024/03/11 07:59:35;;;;;;;;;;;8.90;87.00;;;;;;5018435;28;19929;-62
2024/03/11 08:02:09;;;;;;;;;;;8.90;87.20;;;;;;5017020;28;19932;-63
2024/03/11 08:04:44;;;;;;;;;;;9.10;87.00;;;;;;5018494;28;20340;-63
2024/03/11 08:07:17;;;;;;;;;;;9.20;86.80;;;;;;5018638;28;19984;-62
2024/03/11 08:09:50;;;;;;;;;;;9.20;86.90;;;;;;5016411;28;19936;-62
2024/03/11 08:12:23;;;;;;;;;;;9.30;86.80;;;;;;5015466;28;19936;-63
2024/03/11 08:14:56;;;;;;;;;;;9.30;86.80;;;;;;5018521;28;19925;-63
2024/03/11 08:17:29;;;;;;;;;;;9.40;87.10;;;;;;5014021;28;19936;-62
2024/03/11 08:20:08;;;;;;;;;;;9.50;87.20;;;;;;5016712;28;19933;-63
2024/03/11 08:22:43;;;;;;;;;;;9.60;86.70;;;;;;5019464;28;19972;-61
2024/03/11 08:25:17;;;;;;;;;;;9.60;86.90;;;;;;5020125;28;20481;-60
2024/03/11 08:27:51;;;;;;;;;;;9.70;86.90;;;;;;5016339;28;19930;-62
2024/03/11 08:30:26;;;;;;;;;;;9.80;87.00;;;;;;5015509;28;19972;-65
2024/03/11 08:32:59;;;;;;;;;;;9.90;86.70;;;;;;5012246;28;20019;-61
2024/03/11 08:35:34;;;;;;;;;;;10.00;86.60;;;;;;5018417;28;19971;-61
2024/03/11 08:38:08;;;;;;;;;;;10.10;86.50;;;;;;5014888;28;20297;-62
2024/03/11 08:40:41;;;;;;;;;;;10.10;86.60;;;;;;5013192;28;19933;-61
2024/03/11 08:43:14;;;;;;;;;;;10.10;86.40;;;;;;5019231;28;20031;-62
2024/03/11 08:45:47;;;;;;;;;;;10.20;86.30;;;;;;5015169;28;20015;-61
2024/03/11 08:48:20;;;;;;;;;;;10.30;86.10;;;;;;5016756;28;19968;-61
2024/03/11 08:50:49;;;;;;;;;;;10.30;85.80;;;;;;5018682;28;20304;-61
2024/03/11 08:53:23;;;;;;;;;;;10.30;85.70;;;;;;5019175;28;19968;-60
2024/03/11 08:55:55;;;;;;;;;;;10.40;85.60;;;;;;5016854;28;20471;-62
2024/03/11 08:58:28;;;;;;;;;;;10.50;85.60;;;;;;5015919;28;19936;-62
2024/03/11 09:01:01;;;;;;;;;;;10.60;85.50;;;;;;5016074;28;20451;-60
2024/03/11 09:03:35;;;;;;;;;;;10.70;85.00;;;;;;5014318;28;20019;-61
2024/03/11 09:06:10;;;;;;;;;;;10.80;85.00;;;;;;5018085;28;20021;-61
2024/03/11 09:08:44;;;;;;;;;;;10.80;85.20;;;;;;5019004;28;19925;-60
2024/03/11 09:11:18;;;;;;;;;;;10.80;85.10;;;;;;5017485;28;20031;-60
2024/03/11 09:13:51;;;;;;;;;;;10.80;84.90;;;;;;5015466;28;19925;-61
2024/03/11 09:16:27;;;;;;;;;;;10.90;85.20;;;;;;5016605;28;19980;-65
2024/03/11 09:19:01;;;;;;;;;;;10.80;84.90;;;;;;5014638;28;20308;-61
2024/03/11 09:21:35;;;;;;;;;;;10.90;84.90;;;;;;5013440;28;19929;-59
2024/03/11 09:24:11;;;;;;;;;;;10.90;84.70;;;;;;5013771;28;19933;-61
2024/03/11 09:26:45;;;;;;;;;;;10.90;84.70;;;;;;5016038;28;20038;-60
2024/03/11 09:29:17;;;;;;;;;;;10.80;84.70;;;;;;5012001;28;19932;-60
2024/03/11 09:31:50;;;;;;;;;;;10.80;84.70;;;;;;5014410;28;19929;-64
2024/03/11 09:34:24;;;;;;;;;;;10.70;84.50;;;;;;5016517;28;19961;-65
2024/03/11 09:36:58;;;;;;;;;;;10.60;84.50;;;;;;5013520;28;19926;-65
2024/03/11 09:39:32;;;;;;;;;;;10.60;84.30;;;;;;5013686;28;19938;-66
2024/03/11 09:42:08;;;;;;;;;;;10.60;84.10;;;;;;5014374;28;19929;-66
2024/03/11 09:44:41;;;;;;;;;;;10.60;84.10;;;;;;5013046;28;19933;-64
2024/03/11 09:47:14;;;;;;;;;;;10.60;84.10;;;;;;5013548;28;19931;-64
2024/03/11 09:49:47;;;;;;;;;;;10.70;83.90;;;;;;5017128;28;20015;-65
2024/03/11 09:52:23;;;;;;;;;;;10.70;83.90;;;;;;5016827;28;19971;-64
2024/03/11 09:54:49;;;;;;;;;;;10.80;84.00;;;;;;5013562;28;19928;-63
2024/03/11 09:57:25;;;;;;;;;;;10.80;83.80;;;;;;5018426;28;19929;-65
2024/03/11 10:00:12;;;;;;;;;;;10.80;83.50;;;;;;5015562;28;20291;-64
2024/03/11 10:02:51;;;;;;;;;;;10.80;83.40;;;;;;5009951;28;20762;-65
2024/03/11 10:05:24;;;;;;;;;;;10.90;83.40;;;;;;5014646;28;19929;-63
2024/03/11 10:08:00;;;;;;;;;;;11.00;83.20;;;;;;5015646;28;19964;-65
2024/03/11 10:10:36;;;;;;;;;;;11.10;83.30;;;;;;5016382;28;19925;-64
2024/03/11 10:13:11;;;;;;;;;;;11.10;82.80;;;;;;5016209;28;20004;-66
2024/03/11 10:15:43;;;;;;;;;;;11.20;82.80;;;;;;5017719;28;19936;-66
2024/03/11 10:18:25;;;;;;;;;;;11.30;82.60;;;;;;5015919;28;19925;-64
2024/03/11 10:20:59;;;;;;;;;;;11.40;82.50;;;;;;5013703;28;19948;-64
2024/03/11 10:23:32;;;;;;;;;;;11.40;82.00;;;;;;5014568;28;19925;-66
2024/03/11 10:26:17;;;;;;;;;;;11.50;81.90;;;;;;5018320;28;19931;-64
2024/03/11 10:28:49;;;;;;;;;;;11.50;81.90;;;;;;5017518;28;20014;-65
2024/03/11 10:31:24;;;;;;;;;;;11.60;81.80;;;;;;5014988;28;19940;-65
2024/03/11 10:34:10;;;;;;;;;;;11.60;81.60;;;;;;5018353;28;19929;-64
2024/03/11 10:36:44;;;;;;;;;;;11.70;81.20;;;;;;5015780;28;19929;-65
2024/03/11 10:39:30;;;;;;;;;;;11.80;80.80;;;;;;5015242;28;19930;-65
2024/03/11 10:42:09;;;;;;;;;;;11.90;80.30;;;;;;5015183;28;19948;-63
2024/03/11 10:44:41;;;;;;;;;;;11.90;80.00;;;;;;5009435;28;20411;-64
2024/03/11 10:47:15;;;;;;;;;;;11.90;80.20;;;;;;5011571;28;20040;-64
2024/03/11 10:49:49;;;;;;;;;;;11.90;80.00;;;;;;5012708;28;19929;-63
2024/03/11 10:52:25;;;;;;;;;;;11.80;79.80;;;;;;5010956;28;20396;-62
2024/03/11 10:55:02;;;;;;;;;;;11.80;79.80;;;;;;5012966;28;19964;-63
2024/03/11 10:57:38;;;;;;;;;;;11.70;79.50;;;;;;5012462;28;20459;-62
2024/03/11 11:00:19;;;;;;;;;;;11.70;79.20;;;;;;5010014;28;19925;-64
2024/03/11 11:02:57;;;;;;;;;;;11.70;79.10;;;;;;5015502;28;19934;-63
2024/03/11 11:05:33;;;;;;;;;;;11.80;79.40;;;;;;5011714;28;19933;-62
2024/03/11 11:08:08;;;;;;;;;;;12.00;79.20;;;;;;5016277;28;19932;-63
2024/03/11 11:14:19;;;;;;;;;;;12.40;78.80;;;;;;5011781;28;19933;-64
2024/03/11 11:16:53;;;;;;;;;;;12.90;77.80;;;;;;5015639;28;19933;-64
2024/03/11 11:19:32;;;;;;;;;;;13.20;77.10;;;;;;5014667;28;19929;-65
2024/03/11 11:22:07;;;;;;;;;;;13.40;76.50;;;;;;5021572;28;19936;-64
2024/03/11 11:24:42;;;;;;;;;;;13.50;75.90;;;;;;5020339;28;19925;-63
2024/03/11 11:27:23;;;;;;;;;;;13.60;75.90;;;;;;5017887;28;19925;-64
2024/03/11 11:30:12;;;;;;;;;;;13.60;75.50;;;;;;5022048;28;19933;-63
2024/03/11 11:32:45;;;;;;;;;;;13.60;75.10;;;;;;5021023;28;20356;-64
2024/03/11 11:35:32;;;;;;;;;;;13.70;74.60;;;;;;5014365;28;19925;-64
2024/03/11 11:38:24;;;;;;;;;;;13.70;74.10;;;;;;5018774;28;19929;-64
2024/03/11 11:40:58;;;;;;;;;;;13.70;73.90;;;;;;5018308;28;20422;-63
2024/03/11 11:43:45;;;;;;;;;;;13.70;73.10;;;;;;5020246;28;19979;-64
2024/03/11 11:46:33;;;;;;;;;;;13.70;72.50;;;;;;5020026;28;19931;-64
2024/03/11 11:49:40;;;;;;;;;;;13.80;72.80;;;;;;5018858;28;19929;-63
2024/03/11 11:52:15;;;;;;;;;;;13.80;72.50;;;;;;5016893;28;19960;-72
2024/03/11 11:54:50;;;;;;;;;;;13.90;73.20;;;;;;5018544;28;20372;-71
2024/03/11 11:57:25;;;;;;;;;;;13.70;71.90;;;;;;5020122;28;19932;-74
2024/03/11 11:59:58;;;;;;;;;;;13.50;71.80;;;;;;5017196;28;19925;-71
2024/03/11 12:02:33;;;;;;;;;;;13.50;71.40;;;;;;5016964;28;19929;-75
2024/03/11 12:05:07;;;;;;;;;;;13.40;71.30;;;;;;5011695;28;19925;-73
2024/03/11 12:07:43;;;;;;;;;;;13.30;70.60;;;;;;5016049;28;20487;-72
2024/03/11 12:10:16;;;;;;;;;;;13.40;71.10;;;;;;5015398;28;19944;-72
2024/03/11 12:12:55;;;;;;;;;;;13.60;71.10;;;;;;5019799;28;19940;-73
2024/03/11 12:19:05;;;;;;;;;;;13.60;71.20;;;;;;5011280;28;20278;-72
2024/03/11 12:21:39;;;;;;;;;;;13.70;71.10;;;;;;5018085;28;19936;-71
2024/03/11 12:24:14;;;;;;;;;;;13.70;70.60;;;;;;5019191;28;19976;-72
2024/03/11 12:26:50;;;;;;;;;;;13.70;71.20;;;;;;5020359;28;19929;-74
2024/03/11 12:29:24;;;;;;;;;;;13.80;70.60;;;;;;5019483;28;19971;-72
2024/03/11 12:32:11;;;;;;;;;;;13.70;70.20;;;;;;5017567;28;19933;-72
2024/03/11 12:34:47;;;;;;;;;;;13.80;70.50;;;;;;5018562;28;19969;-72
2024/03/11 12:37:22;;;;;;;;;;;13.80;69.50;;;;;;5017242;28;20024;-72
2024/03/11 12:39:56;;;;;;;;;;;13.80;69.60;;;;;;5021637;28;19925;-73
2024/03/11 12:42:31;;;;;;;;;;;13.80;69.80;;;;;;5019038;28;20012;-72
2024/03/11 12:45:09;;;;;;;;;;;13.80;69.50;;;;;;5014797;28;20377;-75
2024/03/11 12:47:43;;;;;;;;;;;13.90;69.20;;;;;;5017925;28;19933;-73
2024/03/11 12:50:16;;;;;;;;;;;14.00;68.90;;;;;;5012630;28;19937;-73
2024/03/11 12:52:49;;;;;;;;;;;14.10;68.40;;;;;;5019361;28;19926;-74
2024/03/11 12:55:24;;;;;;;;;;;14.10;68.00;;;;;;5019723;28;19931;-73
2024/03/11 12:58:04;;;;;;;;;;;14.10;67.50;;;;;;5020658;28;20460;-73
2024/03/11 13:00:40;;;;;;;;;;;14.10;67.20;;;;;;5019750;28;19925;-73
2024/03/11 13:03:17;;;;;;;;;;;13.90;66.00;;;;;;5016506;28;20721;-72
2024/03/11 13:05:54;;;;;;;;;;;13.90;66.60;;;;;;5020149;28;19933;-72
2024/03/11 13:08:29;;;;;;;;;;;13.80;66.50;;;;;;5017484;28;20644;-71
2024/03/11 13:11:07;;;;;;;;;;;13.70;66.80;;;;;;5030713;28;20359;-72
2024/03/11 13:13:42;;;;;;;;;;;13.70;66.40;;;;;;5014962;28;19933;-73
2024/03/11 13:16:16;;;;;;;;;;;13.60;66.10;;;;;;5011527;28;19929;-72
2024/03/11 13:18:44;;;;;;;;;;;13.70;66.80;;;;;;5016041;28;19940;-73
2024/03/11 13:21:19;;;;;;;;;;;13.60;67.70;;;;;;5015743;28;19991;-66
2024/03/11 13:23:53;;;;;;;;;;;13.60;67.40;;;;;;5012058;28;20008;-66
2024/03/11 13:26:28;;;;;;;;;;;13.60;67.40;;;;;;5015349;28;19930;-67
2024/03/11 13:29:02;;;;;;;;;;;13.60;67.40;;;;;;5017361;28;19949;-66
2024/03/11 13:31:36;;;;;;;;;;;13.60;67.10;;;;;;5016999;28;19937;-68
2024/03/11 13:34:10;;;;;;;;;;;13.60;67.20;;;;;;5018559;28;19925;-67
2024/03/11 13:36:43;;;;;;;;;;;13.60;67.30;;;;;;5014436;28;19925;-67
2024/03/11 13:39:19;;;;;;;;;;;13.60;67.20;;;;;;5016008;28;19925;-67
2024/03/11 13:41:53;;;;;;;;;;;13.70;67.40;;;;;;5014886;28;19930;-67
2024/03/11 13:44:27;;;;;;;;;;;13.70;66.90;;;;;;5015802;28;19935;-67
2024/03/11 13:47:01;;;;;;;;;;;13.70;66.70;;;;;;5012324;28;19931;-66
2024/03/11 13:49:28;;;;;;;;;;;13.70;66.70;;;;;;5012257;28;19929;-67
2024/03/11 13:52:04;;;;;;;;;;;13.70;66.60;;;;;;5018668;28;19980;-67
2024/03/11 13:54:39;;;;;;;;;;;13.60;65.80;;;;;;5014642;28;20013;-67
2024/03/11 13:57:16;;;;;;;;;;;13.60;66.00;;;;;;5014652;28;20016;-66
2024/03/11 13:59:50;;;;;;;;;;;13.60;66.50;;;;;;5018369;28;19964;-66
2024/03/11 14:02:24;;;;;;;;;;;13.60;66.60;;;;;;5011136;28;19964;-66
2024/03/11 14:04:57;;;;;;;;;;;13.50;67.40;;;;;;5011196;28;19936;-67
2024/03/11 14:07:30;;;;;;;;;;;13.60;67.10;;;;;;5012007;28;20833;-66
2024/03/11 14:10:06;;;;;;;;;;;13.50;67.20;;;;;;5011534;28;19925;-67
2024/03/11 14:12:42;;;;;;;;;;;13.60;66.70;;;;;;5014818;28;19976;-67
2024/03/11 14:15:15;;;;;;;;;;;13.60;66.90;;;;;;5014798;28;19933;-66
2024/03/11 14:17:49;;;;;;;;;;;13.60;66.30;;;;;;5017537;28;19975;-68
2024/03/11 14:20:24;;;;;;;;;;;13.60;66.70;;;;;;5016212;28;19940;-65
2024/03/11 14:22:58;;;;;;;;;;;13.60;66.10;;;;;;5017997;28;19936;-67
2024/03/11 14:25:32;;;;;;;;;;;13.70;66.00;;;;;;5017144;28;19929;-66
2024/03/11 14:28:07;;;;;;;;;;;13.70;65.70;;;;;;5016542;28;19928;-66
2024/03/11 14:30:41;;;;;;;;;;;13.70;64.70;;;;;;5013020;28;19928;-65
2024/03/11 14:33:15;;;;;;;;;;;13.70;64.60;;;;;;5018341;28;19925;-64
2024/03/11 14:35:49;;;;;;;;;;;13.70;64.70;;;;;;5013288;28;19937;-65
2024/03/11 14:38:22;;;;;;;;;;;13.70;63.20;;;;;;5013043;28;20021;-65
2024/03/11 14:40:56;;;;;;;;;;;13.60;63.50;;;;;;5016630;28;19933;-65
2024/03/11 14:43:31;;;;;;;;;;;13.60;63.40;;;;;;5018684;28;19947;-65
2024/03/11 14:46:06;;;;;;;;;;;13.60;62.90;;;;;;5018866;28;19925;-65
2024/03/11 14:48:46;;;;;;;;;;;13.50;62.80;;;;;;5015882;28;19936;-65
2024/03/11 14:51:21;;;;;;;;;;;13.40;62.70;;;;;;5019235;28;19949;-65
2024/03/11 14:53:55;;;;;;;;;;;13.40;63.20;;;;;;5019652;28;19925;-65
2024/03/11 14:56:29;;;;;;;;;;;13.30;63.50;;;;;;5021949;28;19932;-65
2024/03/11 14:59:03;;;;;;;;;;;13.30;64.70;;;;;;5022181;28;19932;-64
2024/03/11 15:01:37;;;;;;;;;;;13.30;64.20;;;;;;5019476;28;19936;-64
2024/03/11 15:04:11;;;;;;;;;;;13.20;64.20;;;;;;5022217;28;19933;-64
2024/03/11 15:06:45;;;;;;;;;;;13.20;64.00;;;;;;5011764;28;19975;-64
2024/03/11 15:09:22;;;;;;;;;;;13.20;64.30;;;;;;5015095;28;19925;-64
2024/03/11 15:11:55;;;;;;;;;;;13.30;64.80;;;;;;5014642;28;20019;-64
2024/03/11 15:14:29;;;;;;;;;;;13.30;64.50;;;;;;5014270;28;19929;-64
2024/03/11 15:17:03;;;;;;;;;;;13.40;64.10;;;;;;5014711;28;19930;-65
2024/03/11 15:19:36;;;;;;;;;;;13.40;65.00;;;;;;5017656;28;19932;-66